createdAt,value
2022-12-16T00:01:51.931Z,4.80
2022-12-16T00:04:23.369Z,4.93
2022-12-16T00:06:54.849Z,5.06
2022-12-16T00:09:26.277Z,5.10
2022-12-16T00:11:57.764Z,5.12
2022-12-16T00:14:29.193Z,4.81
2022-12-16T00:17:00.589Z,4.63
2022-12-16T00:19:32.122Z,4.88
2022-12-16T00:22:03.505Z,4.85
2022-12-16T00:24:34.909Z,4.87
2022-12-16T00:27:06.345Z,4.89
2022-12-16T00:29:37.755Z,4.94
2022-12-16T00:32:09.180Z,4.96
2022-12-16T00:34:40.596Z,4.91
2022-12-16T00:37:12.535Z,4.85
2022-12-16T00:39:43.954Z,4.76
2022-12-16T00:42:15.321Z,4.76
2022-12-16T00:44:46.720Z,4.77
2022-12-16T00:47:18.142Z,4.77
2022-12-16T00:49:49.552Z,4.78
2022-12-16T00:52:20.933Z,4.78
2022-12-16T00:54:52.364Z,4.73
2022-12-16T00:57:23.813Z,4.76
2022-12-16T00:59:55.268Z,4.70
2022-12-16T01:02:26.818Z,4.70
2022-12-16T01:04:58.427Z,4.69
2022-12-16T01:07:29.819Z,4.69
2022-12-16T01:10:01.400Z,4.62
2022-12-16T01:12:33.897Z,4.49
2022-12-16T01:15:07.756Z,4.54
2022-12-16T01:17:39.971Z,4.50
2022-12-16T01:20:11.670Z,4.50
2022-12-16T01:22:43.061Z,4.46
2022-12-16T01:25:14.482Z,4.44
2022-12-16T01:27:45.874Z,4.39
2022-12-16T01:30:17.280Z,4.41
2022-12-16T01:32:48.725Z,4.33
2022-12-16T01:35:51.536Z,4.33
2022-12-16T01:38:11.500Z,4.28
2022-12-16T01:40:42.900Z,4.13
2022-12-16T01:43:15.431Z,4.11
2022-12-16T01:45:46.881Z,4.23
2022-12-16T01:48:38.079Z,4.22
2022-12-16T01:51:24.555Z,4.05
2022-12-16T01:54:42.333Z,4.11
2022-12-16T01:57:18.640Z,4.12
2022-12-16T01:59:53.954Z,4.10
2022-12-16T02:02:25.810Z,4.13
2022-12-16T02:04:57.867Z,4.15
2022-12-16T02:07:29.325Z,4.09
2022-12-16T02:10:00.779Z,4.12
2022-12-16T02:12:59.348Z,4.13
2022-12-16T02:15:42.561Z,4.13
2022-12-16T02:18:45.096Z,4.15
2022-12-16T02:21:38.935Z,4.03
2022-12-16T02:24:32.208Z,4.02
2022-12-16T02:27:44.795Z,3.97
2022-12-16T02:30:24.690Z,3.94
2022-12-16T02:33:31.886Z,3.80
2022-12-16T02:36:30.517Z,3.77
2022-12-16T02:39:23.373Z,3.77
2022-12-16T02:42:26.457Z,3.78
2022-12-16T02:45:01.926Z,3.76
2022-12-16T02:47:33.350Z,3.77
2022-12-16T02:50:14.738Z,3.77
2022-12-16T02:52:46.284Z,3.76
2022-12-16T02:55:17.856Z,3.76
2022-12-16T02:58:14.150Z,3.68
2022-12-16T03:01:05.807Z,3.71
2022-12-16T03:03:50.024Z,3.70
2022-12-16T03:06:23.145Z,3.67
2022-12-16T03:08:59.387Z,3.65
2022-12-16T03:11:32.280Z,3.64
2022-12-16T03:14:07.355Z,3.62
2022-12-16T03:16:39.159Z,3.62
2022-12-16T03:19:11.728Z,3.63
2022-12-16T03:21:55.571Z,3.56
2022-12-16T03:24:28.040Z,3.54
2022-12-16T03:27:21.020Z,3.52
2022-12-16T03:30:04.610Z,3.51
2022-12-16T03:32:41.545Z,3.52
2022-12-16T03:35:18.949Z,3.51
2022-12-16T03:37:54.697Z,3.47
2022-12-16T03:40:28.368Z,3.46
2022-12-16T03:43:02.525Z,3.44
2022-12-16T03:45:40.687Z,3.40
2022-12-16T03:48:13.669Z,3.34
2022-12-16T03:50:45.121Z,3.32
2022-12-16T03:53:16.569Z,3.23
2022-12-16T03:55:47.968Z,3.28
2022-12-16T03:58:19.444Z,3.23
2022-12-16T04:00:50.832Z,3.21
2022-12-16T04:03:22.253Z,3.19
2022-12-16T04:05:53.717Z,3.18
2022-12-16T04:08:25.178Z,3.14
2022-12-16T04:10:56.653Z,3.14
2022-12-16T04:13:28.109Z,3.10
2022-12-16T04:16:00.478Z,3.05
2022-12-16T04:18:32.816Z,2.98
2022-12-16T04:21:04.616Z,2.94
2022-12-16T04:23:37.797Z,2.91
2022-12-16T04:26:09.551Z,2.86
2022-12-16T04:28:41.022Z,2.82
2022-12-16T04:31:12.550Z,2.80
2022-12-16T04:33:44.111Z,2.78
2022-12-16T04:36:15.600Z,2.75
2022-12-16T04:38:47.043Z,2.70
2022-12-16T04:41:18.579Z,2.67
2022-12-16T04:43:50.098Z,2.62
2022-12-16T04:46:21.698Z,2.60
2022-12-16T04:48:53.076Z,2.59
2022-12-16T04:51:24.487Z,2.57
2022-12-16T04:53:55.861Z,2.54
2022-12-16T04:56:30.731Z,2.54
2022-12-16T04:59:02.150Z,2.53
2022-12-16T05:01:33.634Z,2.49
2022-12-16T05:04:05.311Z,2.46
2022-12-16T05:06:36.884Z,2.47
2022-12-16T05:09:08.300Z,2.44
2022-12-16T05:11:39.687Z,2.45
2022-12-16T05:14:11.132Z,2.38
2022-12-16T05:16:42.567Z,2.43
2022-12-16T05:19:14.127Z,2.44
2022-12-16T05:21:45.519Z,2.53
2022-12-16T05:24:16.970Z,2.59
2022-12-16T05:26:48.409Z,2.63
2022-12-16T05:29:19.829Z,2.65
2022-12-16T05:31:51.280Z,2.69
2022-12-16T05:34:22.738Z,2.71
2022-12-16T05:36:54.121Z,2.74
2022-12-16T05:39:25.556Z,2.74
2022-12-16T05:41:57.176Z,2.76
2022-12-16T05:44:28.618Z,2.82
2022-12-16T05:47:00.169Z,2.86
2022-12-16T05:49:31.676Z,2.88
2022-12-16T05:52:03.572Z,2.79
2022-12-16T05:54:34.984Z,2.87
2022-12-16T05:57:06.389Z,2.88
2022-12-16T05:59:37.761Z,2.87
2022-12-16T06:02:09.304Z,2.91
2022-12-16T06:04:40.856Z,2.88
2022-12-16T06:07:12.239Z,2.85
2022-12-16T06:09:43.639Z,2.79
2022-12-16T06:12:15.108Z,2.73
2022-12-16T06:14:46.519Z,2.74
2022-12-16T06:17:18.127Z,2.69
2022-12-16T06:19:49.564Z,2.70
2022-12-16T06:22:21.008Z,2.65
2022-12-16T06:24:52.395Z,2.64
2022-12-16T06:27:23.765Z,2.68
2022-12-16T06:29:58.717Z,2.72
2022-12-16T06:32:30.132Z,2.77
2022-12-16T06:35:01.550Z,2.78
2022-12-16T06:37:32.985Z,2.80
2022-12-16T06:40:05.043Z,2.80
2022-12-16T06:42:40.589Z,2.79
2022-12-16T06:45:12.384Z,2.78
2022-12-16T06:47:44.260Z,2.79
2022-12-16T06:50:15.773Z,2.78
2022-12-16T06:52:47.245Z,2.75
2022-12-16T06:55:18.661Z,2.73
2022-12-16T06:57:57.200Z,2.73
2022-12-16T07:00:28.659Z,2.70
2022-12-16T07:03:00.185Z,2.64
2022-12-16T07:05:31.672Z,2.60
2022-12-16T07:08:03.170Z,2.59
2022-12-16T07:10:34.754Z,2.56
2022-12-16T07:13:06.166Z,2.56
2022-12-16T07:15:37.591Z,2.45
2022-12-16T07:18:08.998Z,2.46
2022-12-16T07:20:40.452Z,2.49
2022-12-16T07:23:17.732Z,2.49
2022-12-16T07:25:51.136Z,2.53
2022-12-16T07:28:22.578Z,2.55
2022-12-16T07:30:54.040Z,2.60
2022-12-16T07:33:25.461Z,2.61
2022-12-16T07:35:56.914Z,2.63
2022-12-16T07:38:28.491Z,2.63
2022-12-16T07:41:01.125Z,2.62
2022-12-16T07:43:33.013Z,2.61
2022-12-16T07:46:04.877Z,2.61
2022-12-16T07:48:36.388Z,2.63
2022-12-16T07:51:07.834Z,2.65
2022-12-16T07:53:40.377Z,2.67
2022-12-16T07:56:12.200Z,2.68
2022-12-16T07:58:43.601Z,2.67
2022-12-16T08:01:15.345Z,2.68
2022-12-16T08:03:46.844Z,2.68
2022-12-16T08:06:18.319Z,2.70
2022-12-16T08:08:49.743Z,2.73
2022-12-16T08:11:21.161Z,2.74
2022-12-16T08:13:52.662Z,2.75
2022-12-16T08:16:25.079Z,2.75
2022-12-16T08:18:56.619Z,2.73
2022-12-16T08:21:28.053Z,2.70
2022-12-16T08:24:00.547Z,2.73
2022-12-16T08:26:31.993Z,2.73
2022-12-16T08:29:34.775Z,2.75
2022-12-16T08:31:55.018Z,2.72
2022-12-16T08:34:26.813Z,2.67
2022-12-16T08:36:58.236Z,2.65
2022-12-16T08:39:29.618Z,2.63
2022-12-16T08:42:01.065Z,2.67
2022-12-16T08:44:32.485Z,2.68
2022-12-16T08:47:04.061Z,2.68
2022-12-16T08:49:35.579Z,2.65
2022-12-16T08:52:07.088Z,2.64
2022-12-16T08:54:38.497Z,2.61
2022-12-16T08:57:10.257Z,2.65
2022-12-16T08:59:41.701Z,2.70
2022-12-16T09:02:13.453Z,2.74
2022-12-16T09:04:44.959Z,2.77
2022-12-16T09:07:16.380Z,2.80
2022-12-16T09:09:47.835Z,2.82
2022-12-16T09:12:19.245Z,2.82
2022-12-16T09:14:50.708Z,2.84
2022-12-16T09:17:22.755Z,2.87
2022-12-16T09:19:54.203Z,2.90
2022-12-16T09:22:26.764Z,2.91
2022-12-16T09:24:58.177Z,2.96
2022-12-16T09:27:29.587Z,2.99
2022-12-16T09:30:01.013Z,3.03
2022-12-16T09:32:32.437Z,3.05
2022-12-16T09:35:07.420Z,3.07
2022-12-16T09:37:49.872Z,3.10
2022-12-16T09:40:22.505Z,3.19
2022-12-16T09:43:12.609Z,3.31
2022-12-16T09:45:52.846Z,3.44
2022-12-16T09:48:48.486Z,3.58
2022-12-16T09:51:20.545Z,3.72
2022-12-16T09:53:56.079Z,3.88
2022-12-16T09:56:33.146Z,4.02
2022-12-16T09:59:14.240Z,4.18
2022-12-16T10:01:46.057Z,4.32
2022-12-16T10:04:18.072Z,4.48
2022-12-16T10:06:52.817Z,4.63
2022-12-16T10:09:29.777Z,4.81
2022-12-16T10:12:29.032Z,5.05
2022-12-16T10:15:16.488Z,5.23
2022-12-16T10:17:47.908Z,5.38
2022-12-16T10:20:35.291Z,5.50
2022-12-16T10:23:46.971Z,5.48
2022-12-16T10:26:32.030Z,5.58
2022-12-16T10:29:34.362Z,5.78
2022-12-16T10:32:42.585Z,5.86
2022-12-16T10:35:23.257Z,5.99
2022-12-16T10:37:54.772Z,6.04
2022-12-16T10:40:30.695Z,6.00
2022-12-16T10:43:12.842Z,6.04
2022-12-16T10:45:48.800Z,5.98
2022-12-16T10:48:32.130Z,6.18
2022-12-16T10:51:13.482Z,6.21
2022-12-16T10:53:49.491Z,6.21
2022-12-16T10:56:29.885Z,6.26
2022-12-16T10:59:08.708Z,6.17
2022-12-16T11:01:40.804Z,6.27
2022-12-16T11:04:44.288Z,6.20
2022-12-16T11:07:38.438Z,6.30
2022-12-16T11:10:43.457Z,6.26
2022-12-16T11:13:28.714Z,6.26
2022-12-16T11:16:11.024Z,6.28
2022-12-16T11:18:50.072Z,6.12
2022-12-16T11:21:22.402Z,6.14
2022-12-16T11:24:07.888Z,6.10
2022-12-16T11:26:52.822Z,6.08
2022-12-16T11:29:24.223Z,6.13
2022-12-16T11:32:21.295Z,5.79
2022-12-16T11:34:57.845Z,5.98
2022-12-16T11:37:30.643Z,6.01
2022-12-16T11:40:03.145Z,5.85
2022-12-16T11:42:35.988Z,5.93
2022-12-16T11:45:14.548Z,5.85
2022-12-16T11:47:58.667Z,5.91
2022-12-16T11:50:34.157Z,5.82
2022-12-16T11:53:13.755Z,5.98
2022-12-16T11:56:06.973Z,6.04
2022-12-16T11:58:50.180Z,5.93
2022-12-16T12:01:35.364Z,5.75
2022-12-16T12:04:09.211Z,5.92
2022-12-16T12:06:59.394Z,5.84
2022-12-16T12:09:38.206Z,5.96
2022-12-16T12:12:14.956Z,6.04
2022-12-16T12:14:53.079Z,6.09
2022-12-16T12:17:46.102Z,6.07
2022-12-16T12:20:29.833Z,6.07
2022-12-16T12:23:06.965Z,5.96
2022-12-16T12:25:53.607Z,6.04
2022-12-16T12:28:41.001Z,5.97
2022-12-16T12:31:21.364Z,5.93
2022-12-16T12:34:01.998Z,6.05
2022-12-16T12:36:56.791Z,6.07
2022-12-16T12:39:44.232Z,6.14
2022-12-16T12:42:28.758Z,6.11
2022-12-16T12:45:41.960Z,5.76
2022-12-16T12:48:28.736Z,5.98
2022-12-16T12:51:09.830Z,5.93
2022-12-16T12:54:23.304Z,6.07
2022-12-16T12:56:57.870Z,5.98
2022-12-16T13:00:05.805Z,5.79
2022-12-16T13:03:14.063Z,5.97
2022-12-16T13:05:46.602Z,6.06
2022-12-16T13:08:50.519Z,6.06
2022-12-16T13:11:23.810Z,5.86
2022-12-16T13:13:55.568Z,5.98
2022-12-16T13:16:57.494Z,6.18
2022-12-16T13:19:28.890Z,6.22
2022-12-16T13:22:00.327Z,6.37
2022-12-16T13:24:46.713Z,6.43
2022-12-16T13:27:18.228Z,6.43
2022-12-16T13:30:03.667Z,6.49
2022-12-16T13:32:35.094Z,6.55
2022-12-16T13:35:09.365Z,6.36
2022-12-16T13:37:55.130Z,6.43
2022-12-16T13:40:26.620Z,6.73
2022-12-16T13:42:58.251Z,6.74
2022-12-16T13:45:36.483Z,7.01
2022-12-16T13:48:30.297Z,7.22
2022-12-16T13:51:01.943Z,-146.10
2022-12-16T13:53:51.606Z,-146.10
2022-12-16T13:56:33.596Z,-146.10
2022-12-16T13:59:11.701Z,-146.10
2022-12-16T14:01:55.315Z,-146.10
2022-12-16T14:04:31.299Z,-146.10
2022-12-16T14:07:02.898Z,-146.10
2022-12-16T14:09:37.434Z,-146.10
2022-12-16T14:12:21.051Z,-146.10
2022-12-16T14:15:00.115Z,-146.10
2022-12-16T14:17:42.058Z,-146.10
2022-12-16T14:20:24.243Z,-146.10
2022-12-16T14:23:03.775Z,-146.10
2022-12-16T14:25:35.693Z,-146.10
2022-12-16T14:28:45.479Z,-146.10
2022-12-16T14:31:25.096Z,-146.10
2022-12-16T14:33:56.583Z,-146.10
2022-12-16T14:36:28.989Z,-146.10
2022-12-16T14:39:00.440Z,-146.10
2022-12-16T14:41:32.003Z,-146.10
2022-12-16T14:44:06.012Z,-146.10
2022-12-16T14:46:37.470Z,-146.10
2022-12-16T14:49:19.780Z,-146.10
2022-12-16T14:51:51.226Z,-146.10
2022-12-16T14:54:35.953Z,-146.10
2022-12-16T14:57:12.868Z,-146.10
2022-12-16T14:59:44.348Z,-146.10
2022-12-16T15:02:42.842Z,-146.10
2022-12-16T15:05:19.186Z,-146.10
2022-12-16T15:07:50.869Z,-146.10
2022-12-16T15:10:27.132Z,-146.10
2022-12-16T15:12:59.017Z,-146.10
2022-12-16T15:15:43.216Z,-146.10
2022-12-16T15:18:20.312Z,-146.10
2022-12-16T15:20:55.468Z,-146.10
2022-12-16T15:23:32.222Z,-146.10
2022-12-16T15:26:04.412Z,-146.10
2022-12-16T15:28:35.770Z,-146.10
2022-12-16T15:31:23.559Z,-146.10
2022-12-16T15:34:23.256Z,-146.10
2022-12-16T15:36:54.742Z,-146.10
2022-12-16T15:39:41.334Z,-146.10
2022-12-16T15:42:31.017Z,-146.10
2022-12-16T15:45:02.578Z,-146.10
2022-12-16T15:47:38.388Z,-146.10
2022-12-16T15:50:14.317Z,-146.10
2022-12-16T15:52:45.820Z,-146.10
2022-12-16T15:55:38.161Z,-146.10
2022-12-16T15:58:33.259Z,-146.10
2022-12-16T16:01:06.990Z,-146.10
2022-12-16T16:03:49.957Z,-146.10
2022-12-16T16:06:26.633Z,-146.10
2022-12-16T16:08:58.072Z,-146.10
2022-12-16T16:11:29.461Z,-146.10
2022-12-16T16:14:07.134Z,-146.10
2022-12-16T16:16:40.813Z,-146.10
2022-12-16T16:19:25.041Z,-146.10
2022-12-16T16:21:56.486Z,-146.10
2022-12-16T16:24:28.049Z,-146.10
2022-12-16T16:27:02.049Z,-146.10
2022-12-16T16:29:33.540Z,-146.10
2022-12-16T16:32:05.132Z,-146.10
2022-12-16T16:34:36.525Z,-146.10
2022-12-16T16:37:14.405Z,-146.10
2022-12-16T16:39:45.791Z,-146.10
2022-12-16T16:42:17.278Z,-146.10
2022-12-16T16:44:48.716Z,-146.10
2022-12-16T16:47:20.108Z,-146.10
2022-12-16T16:49:51.556Z,-146.10
2022-12-16T16:52:24.832Z,-146.10
2022-12-16T16:54:56.290Z,-146.10
2022-12-16T16:57:32.312Z,-146.10
2022-12-16T17:00:04.213Z,-146.10
2022-12-16T17:02:40.558Z,-146.10
2022-12-16T17:05:12.989Z,-146.10
2022-12-16T17:07:47.027Z,-146.10
2022-12-16T17:10:22.074Z,-146.10
2022-12-16T17:12:53.455Z,-146.10
2022-12-16T17:15:31.326Z,-146.10
2022-12-16T17:18:04.035Z,-146.10
2022-12-16T17:20:35.452Z,-146.10
2022-12-16T17:23:06.929Z,-146.10
2022-12-16T17:25:38.374Z,-146.10
2022-12-16T17:28:11.534Z,-146.10
2022-12-16T17:30:47.314Z,-146.10
2022-12-16T17:33:19.159Z,-146.10
2022-12-16T17:35:51.584Z,-146.10
2022-12-16T17:38:23.016Z,-146.10
2022-12-16T17:40:54.379Z,-146.10
2022-12-16T17:43:25.827Z,-146.10
2022-12-16T17:46:03.515Z,-146.10
2022-12-16T17:48:34.993Z,-146.10
2022-12-16T17:51:06.406Z,-146.10
2022-12-16T17:53:37.795Z,-146.10
2022-12-16T17:56:09.196Z,-146.10
2022-12-16T17:58:40.714Z,-146.10
2022-12-16T18:01:12.161Z,-146.10
2022-12-16T18:03:43.626Z,-146.10
2022-12-16T18:06:15.129Z,-146.10
2022-12-16T18:08:46.544Z,-146.10
2022-12-16T18:11:17.985Z,-146.10
2022-12-16T18:13:49.405Z,-146.10
2022-12-16T18:16:20.909Z,-146.10
2022-12-16T18:18:52.450Z,-146.10
2022-12-16T18:21:23.979Z,-146.10
2022-12-16T18:23:55.460Z,-146.10
2022-12-16T18:26:27.120Z,-146.10
2022-12-16T18:28:58.609Z,-146.10
2022-12-16T18:31:30.162Z,-146.10
2022-12-16T18:34:01.647Z,-146.10
2022-12-16T18:36:33.083Z,-146.10
2022-12-16T18:39:04.595Z,-146.10
2022-12-16T18:41:42.096Z,-146.10
2022-12-16T18:44:14.082Z,-146.10
2022-12-16T18:46:46.839Z,-146.10
2022-12-16T18:49:18.428Z,-146.10
2022-12-16T18:51:49.875Z,-146.10
2022-12-16T18:54:21.339Z,-146.10
2022-12-16T18:56:52.839Z,-146.10
2022-12-16T18:59:24.325Z,-146.10
2022-12-16T19:01:56.006Z,-146.10
2022-12-16T19:04:27.476Z,-146.10
2022-12-16T19:06:58.917Z,-146.10
2022-12-16T19:09:30.349Z,-146.10
2022-12-16T19:12:01.750Z,-146.10
2022-12-16T19:14:33.158Z,-146.10
2022-12-16T19:17:04.854Z,-146.10
2022-12-16T19:19:36.246Z,-146.10
2022-12-16T19:22:07.682Z,-146.10
2022-12-16T19:24:39.105Z,-146.10
2022-12-16T19:27:15.161Z,-146.10
2022-12-16T19:29:46.941Z,-146.10
2022-12-16T19:32:18.426Z,-146.10
2022-12-16T19:34:49.852Z,-146.10
2022-12-16T19:37:21.276Z,-146.10
2022-12-16T19:39:53.837Z,-146.10
2022-12-16T19:42:25.309Z,-146.10
2022-12-16T19:44:56.887Z,-146.10
2022-12-16T19:47:28.413Z,-146.10
2022-12-16T19:49:59.800Z,-146.10
2022-12-16T19:52:31.274Z,-146.10
2022-12-16T19:55:02.710Z,-146.10
2022-12-16T19:57:34.165Z,-146.10
2022-12-16T20:00:06.631Z,-146.10
2022-12-16T20:02:38.324Z,-146.10
2022-12-16T20:05:09.906Z,-146.10
2022-12-16T20:07:41.497Z,-146.10
2022-12-16T20:10:12.966Z,-146.10
2022-12-16T20:12:44.372Z,-146.10
2022-12-16T20:15:16.176Z,-146.10
2022-12-16T20:17:47.603Z,-146.10
2022-12-16T20:20:19.167Z,-146.10
2022-12-16T20:22:50.585Z,-146.10
2022-12-16T20:25:23.440Z,-146.10
2022-12-16T20:27:55.082Z,-146.10
2022-12-16T20:30:28.007Z,-146.10
2022-12-16T20:32:59.445Z,-146.10
2022-12-16T20:35:30.872Z,-146.10
2022-12-16T20:38:02.536Z,-146.10
2022-12-16T20:40:34.019Z,-146.10
2022-12-16T20:43:05.415Z,-146.10
2022-12-16T20:45:39.715Z,-146.10
2022-12-16T20:48:15.520Z,-146.10
2022-12-16T20:50:58.351Z,-146.10
2022-12-16T20:53:29.753Z,-146.10
2022-12-16T20:56:01.605Z,-146.10
2022-12-16T20:58:33.059Z,-146.10
2022-12-16T21:01:04.958Z,-146.10
2022-12-16T21:03:36.418Z,-146.10
2022-12-16T21:06:07.900Z,-146.10
2022-12-16T21:08:39.506Z,-146.10
2022-12-16T21:11:10.966Z,-146.10
2022-12-16T21:13:42.416Z,-146.10
2022-12-16T21:16:13.936Z,-146.10
2022-12-16T21:18:45.857Z,-146.10
2022-12-16T21:21:17.309Z,-146.10
2022-12-16T21:23:48.700Z,-146.10
2022-12-16T21:26:20.364Z,-146.10
2022-12-16T21:28:51.875Z,-146.10
2022-12-16T21:31:23.538Z,-146.10
2022-12-16T21:33:55.480Z,-146.10
2022-12-16T21:36:26.952Z,-146.10
2022-12-16T21:38:58.376Z,-146.10
2022-12-16T21:41:29.841Z,-146.10
2022-12-16T21:44:01.214Z,-146.10
2022-12-16T21:46:32.622Z,-146.10
2022-12-16T21:49:04.073Z,-146.10
2022-12-16T21:51:36.662Z,-146.10
2022-12-16T21:54:09.600Z,-146.10
2022-12-16T21:56:41.343Z,-146.10
2022-12-16T21:59:12.808Z,-146.10
2022-12-16T22:01:45.643Z,-146.10
2022-12-16T22:04:17.127Z,-146.10
2022-12-16T22:09:39.973Z,-146.10
2022-12-16T22:12:11.425Z,-146.10
2022-12-16T22:14:42.877Z,-146.10
2022-12-16T22:17:14.398Z,-146.10
2022-12-16T22:19:45.902Z,-146.10
2022-12-16T22:22:17.343Z,-146.10
2022-12-16T22:24:48.790Z,-146.10
2022-12-16T22:27:20.408Z,-146.10
2022-12-16T22:29:51.803Z,-146.10
2022-12-16T22:32:23.250Z,-146.10
2022-12-16T22:34:54.684Z,-146.10
2022-12-16T22:37:27.165Z,-146.10
2022-12-16T22:39:58.582Z,-146.10
2022-12-16T22:42:30.027Z,-146.10
2022-12-16T22:45:01.462Z,-146.10
2022-12-16T22:47:33.015Z,-146.10
2022-12-16T22:50:04.834Z,-146.10
2022-12-16T22:52:36.280Z,-146.10
2022-12-16T22:55:08.024Z,-146.10
2022-12-16T22:57:39.432Z,-146.10
2022-12-16T23:00:11.524Z,-146.10
2022-12-16T23:02:43.016Z,-146.10
2022-12-16T23:05:14.454Z,-146.10
2022-12-16T23:07:45.890Z,-146.10
2022-12-16T23:10:17.317Z,-146.10
2022-12-16T23:12:48.708Z,-146.10
2022-12-16T23:15:20.169Z,-146.10
2022-12-16T23:17:51.586Z,-146.10
2022-12-16T23:20:23.264Z,-146.10
2022-12-16T23:22:55.408Z,-146.10
2022-12-16T23:25:27.636Z,-146.10
2022-12-16T23:27:59.075Z,-146.10
2022-12-16T23:30:30.501Z,-146.10
2022-12-16T23:33:03.758Z,-146.10
2022-12-16T23:35:35.161Z,-146.10
2022-12-16T23:38:07.205Z,-146.10
2022-12-16T23:40:38.671Z,-146.10
2022-12-16T23:43:10.140Z,-146.10
2022-12-16T23:45:43.605Z,-146.10
2022-12-16T23:48:17.377Z,-146.10
2022-12-16T23:50:48.837Z,-146.10
2022-12-16T23:53:20.254Z,-146.10
2022-12-16T23:55:57.981Z,-146.10
2022-12-16T23:58:29.409Z,-146.10
